Time;durP1;ratioP1;P1;durP2;ratioP2;P2;SDS_P1;SDS_P2;PMS_P1;PMS_P2;Temp;Humidity;BMP_temperature;BMP_pressure;BME280_temperature;BME280_humidity;BME280_pressure;Samples;Min_cycle;Max_cycle;Signal;HPM_P1;HPM_P2
2023/05/11 00:01:04;;;;;;;0.30;0.30;;;10.60;99.90;;;;;;4997532;28;20203;-70
2023/05/11 00:03:30;;;;;;;0.37;0.37;;;10.60;99.90;;;;;;5015062;28;20172;-70
2023/05/11 00:05:55;;;;;;;0.30;0.30;;;10.60;99.90;;;;;;5014924;28;20537;-69
2023/05/11 00:08:21;;;;;;;0.30;0.30;;;10.60;99.90;;;;;;5015104;28;20398;-70
2023/05/11 00:10:47;;;;;;;0.30;0.30;;;10.70;99.90;;;;;;5014989;28;20265;-70
2023/05/11 00:13:13;;;;;;;0.37;0.37;;;10.70;99.90;;;;;;5014955;28;20306;-70
2023/05/11 00:15:39;;;;;;;0.30;0.30;;;10.70;99.90;;;;;;5014836;28;20493;-71
2023/05/11 00:18:04;;;;;;;1.13;0.73;;;10.70;99.90;;;;;;5014945;28;20246;-69
2023/05/11 00:20:30;;;;;;;0.50;0.50;;;10.70;99.90;;;;;;5013922;28;20206;-70
2023/05/11 00:22:55;;;;;;;0.57;0.50;;;10.70;99.90;;;;;;5014821;28;20168;-70
2023/05/11 00:25:21;;;;;;;0.30;0.30;;;10.70;99.90;;;;;;5014601;28;20210;-70
2023/05/11 00:27:47;;;;;;;0.97;0.67;;;10.60;99.90;;;;;;5014824;28;20266;-71
2023/05/11 00:30:16;;;;;;;0.30;0.30;;;10.50;99.90;;;;;;5014600;28;20191;-71
2023/05/11 00:32:44;;;;;;;0.30;0.30;;;10.40;99.90;;;;;;5014531;28;20183;-71
2023/05/11 00:35:11;;;;;;;0.30;0.30;;;10.50;99.90;;;;;;5014362;28;20180;-70
2023/05/11 00:37:39;;;;;;;0.47;0.47;;;10.50;99.90;;;;;;5014564;28;20414;-70
2023/05/11 00:40:06;;;;;;;0.30;0.30;;;10.40;99.90;;;;;;5014322;28;20458;-69
2023/05/11 00:42:32;;;;;;;0.50;0.50;;;10.40;99.90;;;;;;5014371;28;20437;-71
2023/05/11 00:44:58;;;;;;;0.40;0.40;;;10.40;99.90;;;;;;5014398;28;20402;-71
2023/05/11 00:47:24;;;;;;;0.30;0.30;;;10.40;99.90;;;;;;5014430;28;20168;-70
2023/05/11 00:49:52;;;;;;;0.50;0.50;;;10.50;99.90;;;;;;5014234;28;20422;-71
2023/05/11 00:52:18;;;;;;;0.30;0.30;;;10.50;99.90;;;;;;5014497;28;20259;-69
2023/05/11 00:54:46;;;;;;;0.30;0.30;;;10.40;99.90;;;;;;5014111;28;20958;-70
2023/05/11 00:57:12;;;;;;;0.30;0.30;;;10.50;99.90;;;;;;5014244;28;20184;-69
2023/05/11 00:59:38;;;;;;;0.30;0.30;;;10.50;99.90;;;;;;5013983;28;20210;-69
2023/05/11 01:02:04;;;;;;;0.30;0.30;;;10.40;99.90;;;;;;4996492;28;20419;-70
2023/05/11 01:04:31;;;;;;;0.30;0.30;;;10.40;99.90;;;;;;5014027;28;20402;-69
2023/05/11 01:06:57;;;;;;;0.45;0.45;;;10.30;99.90;;;;;;5014057;28;20768;-71
2023/05/11 01:09:53;;;;;;;0.40;0.40;;;10.50;99.90;;;;;;5013965;28;20179;-69
2023/05/11 01:12:32;;;;;;;0.30;0.30;;;10.30;99.90;;;;;;5013826;28;20191;-69
2023/05/11 01:15:09;;;;;;;0.40;0.40;;;10.30;99.90;;;;;;5014203;28;20438;-70
2023/05/11 01:17:59;;;;;;;0.90;0.60;;;10.30;99.90;;;;;;5014154;28;20175;-70
2023/05/11 01:20:28;;;;;;;0.30;0.30;;;10.30;99.90;;;;;;5013972;28;20454;-69
2023/05/11 01:23:31;;;;;;;0.85;0.85;;;10.30;99.90;;;;;;5013757;28;20638;-71
2023/05/11 01:26:09;;;;;;;0.30;0.30;;;10.30;99.90;;;;;;5013680;28;20562;-70
2023/05/11 01:28:51;;;;;;;0.40;0.40;;;10.30;99.90;;;;;;5013860;28;20434;-70
2023/05/11 01:31:18;;;;;;;0.30;0.30;;;10.30;99.90;;;;;;5014006;28;20422;-70
2023/05/11 01:33:54;;;;;;;0.40;0.40;;;10.30;99.90;;;;;;5013662;28;20175;-70
2023/05/11 01:36:22;;;;;;;0.40;0.40;;;10.30;99.90;;;;;;5013651;28;20171;-71
2023/05/11 01:38:49;;;;;;;0.30;0.30;;;10.30;99.90;;;;;;5013624;28;20203;-71
2023/05/11 01:41:18;;;;;;;0.30;0.30;;;10.40;99.90;;;;;;5013487;28;20507;-69
2023/05/11 01:43:52;;;;;;;0.30;0.30;;;10.40;99.90;;;;;;5013477;28;20187;-70
2023/05/11 01:46:22;;;;;;;0.40;0.40;;;10.40;99.90;;;;;;5013380;28;20167;-70
2023/05/11 01:48:51;;;;;;;1.25;1.15;;;10.40;99.90;;;;;;5013554;28;20990;-70
2023/05/11 01:51:18;;;;;;;0.50;0.50;;;10.40;99.90;;;;;;5013426;28;20309;-68
2023/05/11 01:53:46;;;;;;;0.80;0.80;;;10.40;99.90;;;;;;5013629;28;20414;-71
2023/05/11 01:56:14;;;;;;;0.50;0.50;;;10.50;99.90;;;;;;5013188;28;20706;-72
2023/05/11 01:58:42;;;;;;;0.50;0.50;;;10.60;99.90;;;;;;5013307;28;20426;-69
2023/05/11 02:01:09;;;;;;;0.40;0.40;;;10.60;99.90;;;;;;5013328;28;20438;-71
2023/05/11 02:03:36;;;;;;;0.50;0.50;;;10.60;99.90;;;;;;5013449;28;20410;-69
2023/05/11 02:06:04;;;;;;;0.40;0.40;;;10.50;99.90;;;;;;5013259;28;20186;-70
2023/05/11 02:08:31;;;;;;;0.30;0.30;;;10.50;99.90;;;;;;5013469;28;20399;-71
2023/05/11 02:10:59;;;;;;;0.30;0.30;;;10.50;99.90;;;;;;5013185;28;20932;-71
2023/05/11 02:13:27;;;;;;;0.40;0.40;;;10.40;99.90;;;;;;5013177;28;20198;-71
2023/05/11 02:15:55;;;;;;;0.40;0.40;;;10.50;99.90;;;;;;5013227;28;20222;-70
2023/05/11 02:18:21;;;;;;;0.60;0.60;;;10.50;99.90;;;;;;5013330;28;20172;-71
2023/05/11 02:20:48;;;;;;;0.40;0.40;;;10.50;99.90;;;;;;5013244;28;20223;-69
2023/05/11 02:23:14;;;;;;;10.30;1.50;;;10.40;99.90;;;;;;5013123;28;20247;-70
2023/05/11 02:25:40;;;;;;;0.50;0.50;;;10.40;99.90;;;;;;5013054;28;20168;-71
2023/05/11 02:28:07;;;;;;;0.40;0.40;;;10.30;99.90;;;;;;5013153;28;20171;-69
2023/05/11 02:30:45;;;;;;;0.30;0.30;;;10.20;99.90;;;;;;5013162;28;20270;-70
2023/05/11 02:33:15;;;;;;;0.30;0.30;;;10.30;99.90;;;;;;5013420;28;20171;-70
2023/05/11 02:35:43;;;;;;;0.55;0.55;;;10.30;99.90;;;;;;5012929;28;20259;-69
2023/05/11 02:38:11;;;;;;;0.52;0.52;;;10.30;99.90;;;;;;5013261;28;20175;-69
2023/05/11 02:40:49;;;;;;;0.30;0.30;;;10.20;99.90;;;;;;5012875;28;20211;-70
2023/05/11 02:43:20;;;;;;;0.60;0.60;;;10.20;99.90;;;;;;5014746;28;20251;-70
2023/05/11 02:45:49;;;;;;;3.60;0.80;;;10.10;99.90;;;;;;5016476;28;20555;-70
2023/05/11 02:48:25;;;;;;;0.30;0.30;;;10.20;99.90;;;;;;5016481;28;20172;-70
2023/05/11 02:50:53;;;;;;;0.40;0.40;;;10.10;99.90;;;;;;5016647;28;20195;-70
2023/05/11 02:53:20;;;;;;;0.50;0.50;;;10.20;99.90;;;;;;5016551;28;20582;-69
2023/05/11 02:55:47;;;;;;;0.50;0.50;;;10.20;99.90;;;;;;5016198;28;20168;-69
2023/05/11 02:58:13;;;;;;;0.65;0.65;;;10.30;99.90;;;;;;5016570;28;20196;-71
2023/05/11 03:00:39;;;;;;;0.50;0.50;;;10.40;99.90;;;;;;5016301;28;20216;-70
2023/05/11 03:03:05;;;;;;;0.30;0.30;;;10.40;99.90;;;;;;5016253;28;20166;-70
2023/05/11 03:05:30;;;;;;;1.23;1.23;;;10.40;99.90;;;;;;5016106;28;20178;-70
2023/05/11 03:07:58;;;;;;;0.30;0.30;;;10.40;99.90;;;;;;5016274;28;20402;-71
2023/05/11 03:10:26;;;;;;;0.40;0.40;;;10.30;99.90;;;;;;5016428;28;20194;-70
2023/05/11 03:12:52;;;;;;;0.40;0.40;;;10.20;99.90;;;;;;4998420;28;20227;-70
2023/05/11 03:15:19;;;;;;;0.60;0.60;;;10.30;99.90;;;;;;5015985;28;20500;-70
2023/05/11 03:17:45;;;;;;;1.50;1.20;;;10.30;99.90;;;;;;5016047;28;20414;-69
2023/05/11 03:20:12;;;;;;;0.30;0.30;;;10.20;99.90;;;;;;5016013;28;20254;-71
2023/05/11 03:22:38;;;;;;;0.90;0.80;;;10.20;99.90;;;;;;5016039;28;20407;-70
2023/05/11 03:25:06;;;;;;;0.40;0.40;;;10.20;99.90;;;;;;5015809;28;20493;-71
2023/05/11 03:27:33;;;;;;;0.90;0.90;;;10.20;99.90;;;;;;5016025;28;20434;-70
2023/05/11 03:30:00;;;;;;;0.30;0.30;;;10.30;99.90;;;;;;5015852;28;20426;-71
2023/05/11 03:32:26;;;;;;;0.40;0.40;;;10.30;99.90;;;;;;5016172;28;20485;-69
2023/05/11 03:34:51;;;;;;;0.40;0.40;;;10.20;99.90;;;;;;5015668;28;20506;-71
2023/05/11 03:37:19;;;;;;;0.40;0.40;;;10.30;99.90;;;;;;5015051;28;20175;-71
2023/05/11 03:39:47;;;;;;;0.40;0.40;;;10.30;99.90;;;;;;5015366;28;20230;-69
2023/05/11 03:42:17;;;;;;;0.40;0.40;;;10.30;99.90;;;;;;5015610;28;20176;-69
2023/05/11 03:44:46;;;;;;;0.40;0.40;;;10.30;99.90;;;;;;5014974;28;20558;-71
2023/05/11 03:47:13;;;;;;;0.40;0.40;;;10.40;99.90;;;;;;5015395;28;20898;-70
2023/05/11 03:49:41;;;;;;;0.30;0.30;;;10.40;99.90;;;;;;5015517;28;20939;-70
2023/05/11 03:52:07;;;;;;;0.40;0.40;;;10.40;99.90;;;;;;5015574;28;20175;-71
2023/05/11 03:54:32;;;;;;;0.30;0.30;;;10.30;99.90;;;;;;5013995;28;20407;-70
2023/05/11 03:56:58;;;;;;;0.30;0.30;;;10.30;99.90;;;;;;5015488;28;20870;-69
2023/05/11 03:59:24;;;;;;;0.37;0.37;;;10.40;99.90;;;;;;5015158;28;20206;-69
2023/05/11 04:01:52;;;;;;;0.30;0.30;;;10.30;99.90;;;;;;5015199;28;20172;-70
2023/05/11 04:04:27;;;;;;;0.63;0.63;;;10.20;99.90;;;;;;5015229;28;20958;-71
2023/05/11 04:06:52;;;;;;;0.30;0.30;;;10.10;99.90;;;;;;5015105;28;20408;-69
2023/05/11 04:09:18;;;;;;;0.40;0.40;;;10.10;99.90;;;;;;4997411;28;20531;-71
2023/05/11 04:11:44;;;;;;;0.30;0.30;;;10.10;99.90;;;;;;5014925;28;20183;-71
2023/05/11 04:14:09;;;;;;;0.40;0.40;;;10.10;99.90;;;;;;5015066;28;20171;-70
2023/05/11 04:16:35;;;;;;;0.70;0.70;;;10.10;99.90;;;;;;5014913;28;20175;-71
2023/05/11 04:19:00;;;;;;;0.30;0.30;;;10.10;99.90;;;;;;5014902;28;20199;-70
2023/05/11 04:21:26;;;;;;;0.73;0.73;;;10.10;99.90;;;;;;5014790;28;20234;-71
2023/05/11 04:23:52;;;;;;;0.50;0.50;;;10.10;99.90;;;;;;5014820;28;20658;-71
2023/05/11 04:26:17;;;;;;;0.40;0.40;;;10.20;99.90;;;;;;5014632;28;20168;-69
2023/05/11 04:28:43;;;;;;;0.30;0.30;;;10.20;99.90;;;;;;5014831;28;20695;-70
2023/05/11 04:31:09;;;;;;;0.30;0.30;;;10.30;99.90;;;;;;5014562;28;20278;-70
2023/05/11 04:33:34;;;;;;;0.30;0.30;;;10.40;99.90;;;;;;5014575;28;20172;-70
2023/05/11 04:36:00;;;;;;;0.40;0.40;;;10.40;99.90;;;;;;5014508;28;20402;-69
2023/05/11 04:38:26;;;;;;;0.30;0.30;;;10.40;99.90;;;;;;5014550;28;20250;-71
2023/05/11 04:40:52;;;;;;;0.77;0.77;;;10.50;99.90;;;;;;5014462;28;20214;-70
2023/05/11 04:43:17;;;;;;;0.40;0.40;;;10.50;99.90;;;;;;5014405;28;20246;-71
2023/05/11 04:45:47;;;;;;;0.30;0.30;;;10.50;99.90;;;;;;5014201;28;20588;-70
2023/05/11 04:48:13;;;;;;;0.40;0.40;;;10.50;99.90;;;;;;5014486;28;20411;-69
2023/05/11 04:50:39;;;;;;;0.40;0.40;;;10.60;99.90;;;;;;5014216;28;20430;-71
2023/05/11 04:53:04;;;;;;;0.50;0.50;;;10.70;99.90;;;;;;5014494;28;20666;-71
2023/05/11 04:55:30;;;;;;;0.50;0.50;;;10.70;99.90;;;;;;4996406;28;20190;-70
2023/05/11 04:57:56;;;;;;;0.57;0.57;;;10.70;99.90;;;;;;5014517;28;20259;-69
2023/05/11 05:00:21;;;;;;;0.70;0.70;;;10.60;99.90;;;;;;5014034;28;20206;-70
2023/05/11 05:02:49;;;;;;;0.50;0.50;;;10.70;99.90;;;;;;5014091;28;20164;-69
2023/05/11 05:05:15;;;;;;;0.63;0.63;;;10.70;99.90;;;;;;5013580;28;20499;-70
2023/05/11 05:07:40;;;;;;;1.00;0.83;;;10.80;99.90;;;;;;5013986;28;20406;-70
2023/05/11 05:10:07;;;;;;;0.40;0.40;;;10.80;99.90;;;;;;5014323;28;20195;-70
2023/05/11 05:12:35;;;;;;;1.13;1.07;;;10.80;99.90;;;;;;5013985;28;20183;-69
2023/05/11 05:15:02;;;;;;;0.57;0.57;;;10.80;99.90;;;;;;5013810;28;20417;-71
2023/05/11 05:17:27;;;;;;;0.40;0.40;;;10.80;99.90;;;;;;5014050;28;20426;-70
2023/05/11 05:19:53;;;;;;;0.60;0.60;;;10.80;99.90;;;;;;5013715;28;20918;-70
2023/05/11 05:22:19;;;;;;;0.43;0.43;;;10.90;99.90;;;;;;5014019;28;20203;-70
2023/05/11 05:24:44;;;;;;;0.50;0.50;;;10.90;99.90;;;;;;5013708;28;20654;-70
2023/05/11 05:27:10;;;;;;;0.90;0.90;;;10.90;99.90;;;;;;5013950;28;20499;-70
2023/05/11 05:29:35;;;;;;;3.30;3.03;;;10.90;99.90;;;;;;5013865;28;20198;-70
2023/05/11 05:32:01;;;;;;;0.50;0.50;;;11.10;99.90;;;;;;5013680;28;20168;-70
2023/05/11 05:34:26;;;;;;;0.77;0.77;;;11.10;99.90;;;;;;5013746;28;20627;-70
2023/05/11 05:36:52;;;;;;;1.27;1.17;;;11.20;99.90;;;;;;5013612;28;20234;-71
2023/05/11 05:39:18;;;;;;;1.83;0.87;;;11.40;99.90;;;;;;5013406;28;20227;-70
2023/05/11 05:41:44;;;;;;;1.90;1.80;;;11.20;99.90;;;;;;5013731;28;20544;-69
2023/05/11 05:44:10;;;;;;;1.07;0.57;;;11.20;99.90;;;;;;5013753;28;20416;-70
2023/05/11 05:46:35;;;;;;;0.73;0.70;;;11.30;99.90;;;;;;5013532;28;20168;-71
2023/05/11 05:49:01;;;;;;;0.50;0.50;;;11.30;99.90;;;;;;5013546;28;20179;-69
2023/05/11 05:51:26;;;;;;;0.80;0.63;;;11.40;99.90;;;;;;5013403;28;20191;-69
2023/05/11 05:53:52;;;;;;;0.60;0.57;;;11.50;99.90;;;;;;5013538;28;20179;-70
2023/05/11 05:56:17;;;;;;;2.43;1.33;;;11.50;99.90;;;;;;5013389;28;20176;-69
2023/05/11 05:58:43;;;;;;;0.40;0.40;;;11.50;99.90;;;;;;5013549;28;20544;-71
2023/05/11 06:01:09;;;;;;;0.50;0.50;;;11.70;99.90;;;;;;5013456;28;20326;-70
2023/05/11 06:03:34;;;;;;;0.30;0.30;;;11.80;99.90;;;;;;5013583;28;20229;-71
2023/05/11 06:06:03;;;;;;;0.40;0.40;;;11.80;99.90;;;;;;5013118;28;20195;-70
2023/05/11 06:08:29;;;;;;;1.63;1.27;;;11.80;99.90;;;;;;5013448;28;20211;-71
2023/05/11 06:10:55;;;;;;;0.40;0.40;;;11.90;99.90;;;;;;5013395;28;20452;-70
2023/05/11 06:13:20;;;;;;;0.90;0.90;;;12.00;99.90;;;;;;5013297;28;20191;-70
2023/05/11 06:15:46;;;;;;;1.17;0.60;;;12.00;99.90;;;;;;5013128;28;20403;-71
2023/05/11 06:18:11;;;;;;;0.50;0.50;;;12.00;99.90;;;;;;5014747;28;20183;-70
2023/05/11 06:20:37;;;;;;;0.70;0.70;;;12.00;99.90;;;;;;5016962;28;20203;-70
2023/05/11 06:23:03;;;;;;;1.47;0.80;;;12.10;99.90;;;;;;5017038;28;20254;-71
2023/05/11 06:25:28;;;;;;;0.50;0.50;;;12.30;99.90;;;;;;5016943;28;20271;-71
2023/05/11 06:27:54;;;;;;;0.40;0.40;;;12.60;99.90;;;;;;5017040;28;20188;-70
2023/05/11 06:30:19;;;;;;;0.70;0.60;;;12.80;99.90;;;;;;5017022;28;20309;-71
2023/05/11 06:32:45;;;;;;;1.33;0.63;;;13.10;99.90;;;;;;5016794;28;20175;-71
2023/05/11 06:35:11;;;;;;;0.40;0.40;;;13.30;99.40;;;;;;5016663;28;20169;-69
2023/05/11 06:37:36;;;;;;;0.60;0.60;;;13.40;99.30;;;;;;5016830;28;20176;-72
2023/05/11 06:40:02;;;;;;;0.50;0.50;;;13.40;98.00;;;;;;5016692;28;20204;-71
2023/05/11 06:42:28;;;;;;;0.70;0.70;;;13.30;98.00;;;;;;5016719;28;20219;-69
2023/05/11 06:44:53;;;;;;;0.50;0.50;;;13.20;98.70;;;;;;5016415;28;20406;-71
2023/05/11 06:47:19;;;;;;;0.30;0.30;;;13.40;99.00;;;;;;5016707;28;20575;-70
2023/05/11 06:49:45;;;;;;;0.30;0.30;;;13.50;98.90;;;;;;5016903;28;20648;-68
2023/05/11 06:52:10;;;;;;;0.40;0.40;;;13.70;98.60;;;;;;5015930;28;20175;-70
2023/05/11 06:54:36;;;;;;;0.77;0.77;;;13.70;98.60;;;;;;5016769;28;20180;-72
2023/05/11 06:57:02;;;;;;;0.50;0.40;;;13.90;98.90;;;;;;5015651;28;20183;-69
2023/05/11 06:59:28;;;;;;;0.50;0.50;;;14.40;99.90;;;;;;5017216;28;20193;-69
2023/05/11 07:01:54;;;;;;;0.40;0.40;;;14.40;98.70;;;;;;5016517;28;20710;-70
2023/05/11 07:04:20;;;;;;;0.40;0.40;;;14.60;96.70;;;;;;5016557;28;20403;-72
2023/05/11 07:06:46;;;;;;;0.30;0.30;;;14.40;95.80;;;;;;5016687;28;20411;-72
2023/05/11 07:09:11;;;;;;;0.40;0.40;;;14.00;96.10;;;;;;5016662;28;20498;-70
2023/05/11 07:11:37;;;;;;;0.37;0.37;;;13.50;96.50;;;;;;5016703;28;20518;-71
2023/05/11 07:14:02;;;;;;;0.40;0.40;;;13.20;97.20;;;;;;5016363;28;20227;-70
2023/05/11 07:16:28;;;;;;;0.30;0.30;;;13.00;97.70;;;;;;5015909;28;20541;-70
2023/05/11 07:18:54;;;;;;;0.30;0.30;;;12.90;97.90;;;;;;5016304;28;20209;-71
2023/05/11 07:21:22;;;;;;;1.90;0.77;;;12.80;99.00;;;;;;5016066;28;20195;-70
2023/05/11 07:23:48;;;;;;;0.67;0.53;;;12.70;98.70;;;;;;5016210;28;20624;-70
2023/05/11 07:26:13;;;;;;;0.70;0.70;;;12.80;98.90;;;;;;5015943;28;20401;-71
2023/05/11 07:28:39;;;;;;;0.93;0.80;;;12.90;99.10;;;;;;5016213;28;20164;-69
2023/05/11 07:31:05;;;;;;;0.40;0.40;;;13.10;99.40;;;;;;5015969;28;20195;-69
2023/05/11 07:33:33;;;;;;;1.23;1.23;;;13.40;98.10;;;;;;5015992;28;20627;-70
2023/05/11 07:35:59;;;;;;;0.60;0.60;;;13.50;98.30;;;;;;5015439;28;20805;-70
2023/05/11 07:38:24;;;;;;;0.53;0.53;;;13.60;98.10;;;;;;5015221;28;20410;-70
2023/05/11 07:40:50;;;;;;;0.50;0.50;;;13.60;97.50;;;;;;5015378;28;20261;-70
2023/05/11 07:43:15;;;;;;;0.40;0.40;;;13.50;97.40;;;;;;5015132;28;20655;-70
2023/05/11 07:45:41;;;;;;;0.40;0.40;;;13.40;97.60;;;;;;5015034;28;20167;-69
2023/05/11 07:48:06;;;;;;;0.50;0.50;;;13.30;97.90;;;;;;4998118;28;20226;-69
2023/05/11 07:50:32;;;;;;;0.40;0.40;;;13.10;98.00;;;;;;5015505;28;20188;-70
2023/05/11 07:52:58;;;;;;;1.13;0.70;;;13.00;98.30;;;;;;5015409;28;20230;-69
2023/05/11 07:55:23;;;;;;;0.33;0.33;;;12.80;98.30;;;;;;5015301;28;20175;-69
2023/05/11 07:57:51;;;;;;;0.40;0.40;;;12.80;98.80;;;;;;5015434;28;20261;-70
2023/05/11 08:00:18;;;;;;;1.03;1.03;;;12.90;99.30;;;;;;5015113;28;20211;-69
2023/05/11 08:02:43;;;;;;;0.40;0.40;;;13.00;98.50;;;;;;5015262;28;20964;-70
2023/05/11 08:05:09;;;;;;;0.77;0.73;;;13.10;98.30;;;;;;5015050;28;20407;-69
2023/05/11 08:07:35;;;;;;;0.30;0.30;;;13.10;98.50;;;;;;5015193;28;20171;-69
2023/05/11 08:10:00;;;;;;;0.30;0.30;;;13.20;98.00;;;;;;4997618;28;20454;-69
2023/05/11 08:12:26;;;;;;;0.50;0.50;;;13.30;98.50;;;;;;5014849;28;20194;-70
2023/05/11 08:14:52;;;;;;;0.70;0.70;;;13.40;98.50;;;;;;5014688;28;20647;-69
2023/05/11 08:17:17;;;;;;;0.50;0.50;;;13.50;98.00;;;;;;5014691;28;20542;-69
2023/05/11 08:19:43;;;;;;;0.37;0.37;;;13.70;98.40;;;;;;4997228;28;20249;-70
2023/05/11 08:22:09;;;;;;;0.40;0.40;;;13.90;97.60;;;;;;5014792;28;20658;-70
2023/05/11 08:24:34;;;;;;;0.40;0.40;;;13.90;96.20;;;;;;5014796;28;20167;-70
2023/05/11 08:27:00;;;;;;;0.70;0.53;;;13.80;95.60;;;;;;5014914;28;20170;-70
2023/05/11 08:29:26;;;;;;;0.60;0.60;;;14.00;99.90;;;;;;5014649;28;20175;-69
2023/05/11 08:31:52;;;;;;;0.60;0.60;;;14.00;95.30;;;;;;5014696;28;20218;-70
2023/05/11 08:34:18;;;;;;;0.40;0.40;;;14.10;95.90;;;;;;5014739;28;20577;-69
2023/05/11 08:36:44;;;;;;;1.23;0.50;;;14.40;95.90;;;;;;5014536;28;20407;-70
2023/05/11 08:39:10;;;;;;;0.40;0.40;;;;;;;;;;5014390;28;20882;-69
2023/05/11 08:41:36;;;;;;;0.40;0.40;;;14.50;94.40;;;;;;5013821;28;20414;-69
2023/05/11 08:44:02;;;;;;;0.30;0.30;;;14.60;95.50;;;;;;5013632;28;20399;-69
2023/05/11 08:46:32;;;;;;;0.40;0.40;;;14.80;95.80;;;;;;5014105;28;20225;-70
2023/05/11 08:48:58;;;;;;;1.70;0.60;;;14.80;94.50;;;;;;5014755;28;20402;-70
2023/05/11 08:51:25;;;;;;;0.30;0.30;;;14.80;94.70;;;;;;5014242;28;20834;-70
2023/05/11 08:53:52;;;;;;;0.90;0.53;;;15.00;95.00;;;;;;5014401;28;20693;-70
2023/05/11 08:56:20;;;;;;;0.40;0.40;;;15.10;94.40;;;;;;5014156;28;20414;-69
2023/05/11 08:58:48;;;;;;;0.40;0.40;;;15.00;92.80;;;;;;5014445;28;20399;-69
2023/05/11 09:01:16;;;;;;;0.40;0.40;;;14.80;92.80;;;;;;5014629;28;20426;-69
2023/05/11 09:03:42;;;;;;;0.30;0.30;;;14.80;93.40;;;;;;5014610;28;20412;-68
2023/05/11 09:06:09;;;;;;;0.30;0.30;;;14.90;94.30;;;;;;5014012;28;20406;-69
2023/05/11 09:08:37;;;;;;;0.83;0.77;;;15.20;93.40;;;;;;5013979;28;20413;-69
2023/05/11 09:11:03;;;;;;;0.40;0.40;;;15.80;94.70;;;;;;5014136;28;20434;-70
2023/05/11 09:13:30;;;;;;;0.40;0.40;;;16.40;92.90;;;;;;5014093;28;20427;-69
2023/05/11 09:15:56;;;;;;;0.40;0.40;;;16.90;92.90;;;;;;5014139;28;20415;-70
2023/05/11 09:18:22;;;;;;;0.60;0.60;;;17.20;91.60;;;;;;5014064;28;20407;-70
2023/05/11 09:20:50;;;;;;;0.30;0.30;;;17.50;92.10;;;;;;5013773;28;20566;-69
2023/05/11 09:23:18;;;;;;;0.37;0.37;;;17.70;90.20;;;;;;5013725;28;20169;-69
2023/05/11 09:25:44;;;;;;;0.60;0.60;;;17.40;90.50;;;;;;5013776;28;20756;-69
2023/05/11 09:28:15;;;;;;;0.40;0.40;;;17.20;89.90;;;;;;5013995;28;20403;-69
2023/05/11 09:30:41;;;;;;;0.30;0.30;;;16.90;90.50;;;;;;4995966;28;20196;-69
2023/05/11 09:33:07;;;;;;;0.40;0.40;;;16.70;90.40;;;;;;5014260;28;20464;-69
2023/05/11 09:35:34;;;;;;;0.50;0.50;;;16.20;90.00;;;;;;5013712;28;20183;-69
2023/05/11 09:38:07;;;;;;;0.67;0.50;;;16.00;92.30;;;;;;5013700;28;20258;-69
2023/05/11 09:40:35;;;;;;;0.30;0.30;;;15.80;91.60;;;;;;5013725;28;20466;-69
2023/05/11 09:43:25;;;;;;;0.40;0.40;;;15.70;92.70;;;;;;5014077;28;20410;-69
2023/05/11 09:45:53;;;;;;;2.93;0.50;;;15.50;91.10;;;;;;5013526;28;20920;-69
2023/05/11 09:48:18;;;;;;;0.60;0.60;;;15.40;92.40;;;;;;5013565;28;20402;-69
2023/05/11 09:50:46;;;;;;;0.30;0.30;;;15.50;92.90;;;;;;5013732;28;20445;-69
2023/05/11 09:53:12;;;;;;;0.60;0.60;;;15.50;92.90;;;;;;5017165;28;20166;-69
2023/05/11 09:55:37;;;;;;;1.30;1.30;;;15.60;93.30;;;;;;4999898;28;20917;-69
2023/05/11 09:58:03;;;;;;;0.53;0.53;;;15.70;92.40;;;;;;5017830;28;20210;-69
2023/05/11 10:00:30;;;;;;;0.30;0.30;;;16.00;92.90;;;;;;5017796;28;20249;-69
2023/05/11 10:03:03;;;;;;;0.30;0.30;;;16.20;90.90;;;;;;4999850;28;20907;-69
2023/05/11 10:05:31;;;;;;;1.77;1.00;;;16.30;91.80;;;;;;5017377;28;20485;-69
2023/05/11 10:08:01;;;;;;;3.70;1.07;;;16.60;89.90;;;;;;5017579;28;20764;-69
2023/05/11 10:10:29;;;;;;;0.40;0.40;;;16.80;88.90;;;;;;5016881;28;20851;-69
2023/05/11 10:12:57;;;;;;;0.60;0.60;;;16.90;89.00;;;;;;5017167;28;20437;-69
2023/05/11 10:15:30;;;;;;;0.30;0.30;;;17.00;90.10;;;;;;4999293;28;20428;-69
2023/05/11 10:17:59;;;;;;;1.63;0.50;;;16.80;87.90;;;;;;5016961;28;20750;-69
2023/05/11 10:20:25;;;;;;;0.50;0.50;;;16.70;89.10;;;;;;5017156;28;20463;-69
2023/05/11 10:22:52;;;;;;;0.40;0.40;;;16.50;88.20;;;;;;5017059;28;20399;-69
2023/05/11 10:25:21;;;;;;;0.63;0.63;;;16.50;89.60;;;;;;5016919;28;20494;-69
2023/05/11 10:27:47;;;;;;;0.50;0.50;;;16.10;88.30;;;;;;5016929;28;20410;-69
2023/05/11 10:30:13;;;;;;;0.40;0.40;;;16.00;90.00;;;;;;5017302;28;20422;-69
2023/05/11 10:32:39;;;;;;;0.60;0.50;;;15.80;90.30;;;;;;5016965;28;20178;-69
2023/05/11 10:35:05;;;;;;;0.30;0.30;;;15.70;89.10;;;;;;5016840;28;20402;-70
2023/05/11 10:37:32;;;;;;;0.30;0.30;;;15.70;88.10;;;;;;5017370;28;20410;-69
2023/05/11 10:40:00;;;;;;;0.30;0.30;;;15.80;90.10;;;;;;5016695;28;20825;-69
2023/05/11 10:43:07;;;;;;;0.30;0.30;;;16.30;90.90;;;;;;5015752;28;20836;-69
2023/05/11 10:46:11;;;;;;;0.50;0.50;;;16.80;88.30;;;;;;5015218;28;20437;-69
2023/05/11 10:48:48;;;;;;;0.40;0.40;;;17.50;90.30;;;;;;4936281;29;20499;-70
2023/05/11 10:51:31;;;;;;;1.30;1.20;;;18.30;87.00;;;;;;5006359;28;20425;-69
2023/05/11 10:54:30;;;;;;;0.30;0.30;;;19.00;82.90;;;;;;5016681;28;20406;-69
2023/05/11 10:57:27;;;;;;;0.40;0.40;;;19.00;79.60;;;;;;4999063;28;20456;-69
2023/05/11 11:00:19;;;;;;;0.30;0.30;;;18.10;80.00;;;;;;5016348;28;20996;-69
2023/05/11 11:02:44;;;;;;;0.70;0.70;;;17.30;82.20;;;;;;5016547;28;20398;-69
2023/05/11 11:05:15;;;;;;;0.40;0.40;;;16.70;83.90;;;;;;5015454;28;20409;-69
2023/05/11 11:08:04;;;;;;;0.50;0.50;;;16.40;83.30;;;;;;5016403;28;20178;-69
2023/05/11 11:10:38;;;;;;;0.30;0.30;;;16.20;86.50;;;;;;5016321;28;20433;-69
2023/05/11 11:13:11;;;;;;;0.60;0.60;;;15.90;86.50;;;;;;5016286;28;20457;-69
2023/05/11 11:15:54;;;;;;;0.57;0.57;;;15.90;85.20;;;;;;5016014;28;20940;-69
2023/05/11 11:18:22;;;;;;;0.40;0.40;;;15.80;87.70;;;;;;5016097;28;20418;-69
2023/05/11 11:20:50;;;;;;;0.30;0.30;;;15.90;86.50;;;;;;5015872;28;20474;-69
2023/05/11 11:23:48;;;;;;;0.30;0.30;;;16.10;86.50;;;;;;5016034;28;20406;-69
2023/05/11 11:26:17;;;;;;;0.40;0.40;;;16.80;88.60;;;;;;5015745;28;20440;-69
2023/05/11 11:29:01;;;;;;;0.40;0.40;;;17.20;86.00;;;;;;5015920;28;20395;-69
2023/05/11 11:31:29;;;;;;;0.50;0.50;;;17.50;83.80;;;;;;5015907;28;20418;-69
2023/05/11 11:33:57;;;;;;;0.30;0.30;;;18.00;82.80;;;;;;5016012;28;20456;-69
2023/05/11 11:36:54;;;;;;;0.40;0.40;;;18.30;81.80;;;;;;5015489;28;20517;-69
2023/05/11 11:39:21;;;;;;;0.30;0.30;;;17.50;90.60;;;;;;4997898;28;20449;-69
2023/05/11 11:42:02;;;;;;;0.40;0.40;;;17.60;83.00;;;;;;5015628;28;20401;-70
2023/05/11 11:44:29;;;;;;;0.30;0.30;;;17.40;82.70;;;;;;5015636;28;20873;-69
2023/05/11 11:47:14;;;;;;;0.40;0.40;;;17.30;82.00;;;;;;5015656;28;20440;-69
2023/05/11 11:49:42;;;;;;;0.40;0.40;;;17.40;81.30;;;;;;5015375;28;20429;-70
2023/05/11 11:52:13;;;;;;;0.80;0.53;;;17.50;81.60;;;;;;5015377;28;20467;-69
2023/05/11 11:54:44;;;;;;;0.37;0.37;;;17.40;83.40;;;;;;5015227;28;20413;-69
2023/05/11 11:57:31;;;;;;;0.40;0.40;;;17.60;81.40;;;;;;5015503;28;20406;-70
2023/05/11 12:00:03;;;;;;;0.50;0.50;;;17.70;78.90;;;;;;5016231;28;20812;-70
2023/05/11 12:02:30;;;;;;;0.30;0.30;;;18.00;80.00;;;;;;5015209;28;20410;-69
2023/05/11 12:04:56;;;;;;;0.30;0.30;;;18.20;77.60;;;;;;5015084;28;20411;-69
2023/05/11 12:07:24;;;;;;;0.30;0.30;;;18.20;78.20;;;;;;5014763;28;20416;-69
2023/05/11 12:09:51;;;;;;;0.30;0.30;;;18.20;79.00;;;;;;5014656;28;20428;-69
2023/05/11 12:12:18;;;;;;;0.30;0.30;;;18.10;78.60;;;;;;5014989;28;20461;-69
2023/05/11 12:14:47;;;;;;;1.03;0.70;;;18.20;77.60;;;;;;5014409;28;20467;-69
2023/05/11 12:17:21;;;;;;;0.40;0.40;;;17.70;77.70;;;;;;5014456;28;20418;-69
2023/05/11 12:19:47;;;;;;;0.30;0.30;;;17.30;78.10;;;;;;5014897;28;20549;-69
2023/05/11 12:22:15;;;;;;;0.30;0.30;;;17.20;80.40;;;;;;5015042;28;20498;-69
2023/05/11 12:24:41;;;;;;;0.50;0.50;;;17.20;80.00;;;;;;5015058;28;20160;-69
2023/05/11 12:27:07;;;;;;;0.60;0.60;;;17.10;80.80;;;;;;5014776;28;20450;-69
2023/05/11 12:29:33;;;;;;;0.50;0.50;;;16.90;81.20;;;;;;5014710;28;20477;-69
2023/05/11 12:31:59;;;;;;;0.40;0.40;;;16.60;81.90;;;;;;5014785;28;20188;-69
2023/05/11 12:34:25;;;;;;;0.30;0.30;;;16.10;83.80;;;;;;5014510;28;20175;-69
2023/05/11 12:36:52;;;;;;;0.37;0.37;;;15.60;85.70;;;;;;5014734;28;20944;-69
2023/05/11 12:39:23;;;;;;;1.10;0.83;;;15.40;86.20;;;;;;5014343;28;20549;-69
2023/05/11 12:41:51;;;;;;;0.50;0.50;;;15.30;87.00;;;;;;5014518;28;20412;-69
2023/05/11 12:44:18;;;;;;;0.50;0.50;;;15.10;87.90;;;;;;5014403;28;20398;-69
2023/05/11 12:46:45;;;;;;;0.40;0.40;;;15.10;86.90;;;;;;5014155;28;20458;-69
2023/05/11 12:49:12;;;;;;;0.40;0.40;;;;;;;;;;5014455;28;20418;-69
2023/05/11 12:51:58;;;;;;;0.30;0.30;;;15.00;87.70;;;;;;5014200;28;20448;-69
2023/05/11 12:54:46;;;;;;;0.40;0.40;;;15.00;88.50;;;;;;5013582;28;20437;-69